sensor_id;sensor_type;location;lat;lon;timestamp;P1;durP1;ratioP1;P2;durP2;ratioP2
12493;SDS011;8260;51.422;6.786;2022-12-20T00:00:29;4.53;;;2.88;;
12493;SDS011;8260;51.422;6.786;2022-12-20T00:02:59;4.22;;;3.33;;
12493;SDS011;8260;51.422;6.786;2022-12-20T00:05:27;2.95;;;2.60;;
12493;SDS011;8260;51.422;6.786;2022-12-20T00:07:56;3.00;;;2.70;;
12493;SDS011;8260;51.422;6.786;2022-12-20T00:10:24;3.47;;;2.78;;
12493;SDS011;8260;51.422;6.786;2022-12-20T00:12:52;3.42;;;3.05;;
12493;SDS011;8260;51.422;6.786;2022-12-20T00:15:21;3.45;;;2.47;;
12493;SDS011;8260;51.422;6.786;2022-12-20T00:17:49;4.53;;;2.85;;
12493;SDS011;8260;51.422;6.786;2022-12-20T00:20:19;4.72;;;2.67;;
12493;SDS011;8260;51.422;6.786;2022-12-20T00:22:48;3.00;;;2.67;;
12493;SDS011;8260;51.422;6.786;2022-12-20T00:25:16;2.80;;;2.40;;
12493;SDS011;8260;51.422;6.786;2022-12-20T00:27:46;2.70;;;2.38;;
12493;SDS011;8260;51.422;6.786;2022-12-20T00:30:14;2.45;;;2.25;;
12493;SDS011;8260;51.422;6.786;2022-12-20T00:32:43;4.05;;;2.70;;
12493;SDS011;8260;51.422;6.786;2022-12-20T00:35:11;4.85;;;2.20;;
12493;SDS011;8260;51.422;6.786;2022-12-20T00:37:41;2.63;;;2.17;;
12493;SDS011;8260;51.422;6.786;2022-12-20T00:40:10;4.85;;;2.40;;
12493;SDS011;8260;51.422;6.786;2022-12-20T00:42:38;2.15;;;1.95;;
12493;SDS011;8260;51.422;6.786;2022-12-20T00:45:07;3.60;;;2.40;;
12493;SDS011;8260;51.422;6.786;2022-12-20T00:47:35;4.20;;;2.47;;
12493;SDS011;8260;51.422;6.786;2022-12-20T00:50:04;2.47;;;2.28;;
12493;SDS011;8260;51.422;6.786;2022-12-20T00:52:33;4.13;;;2.10;;
12493;SDS011;8260;51.422;6.786;2022-12-20T00:55:03;3.20;;;2.28;;
12493;SDS011;8260;51.422;6.786;2022-12-20T00:57:32;3.70;;;2.30;;
12493;SDS011;8260;51.422;6.786;2022-12-20T01:00:00;2.30;;;2.10;;
12493;SDS011;8260;51.422;6.786;2022-12-20T01:02:29;3.33;;;2.20;;
12493;SDS011;8260;51.422;6.786;2022-12-20T01:04:58;5.47;;;2.10;;
12493;SDS011;8260;51.422;6.786;2022-12-20T01:07:26;3.20;;;2.20;;
12493;SDS011;8260;51.422;6.786;2022-12-20T01:09:54;4.72;;;2.40;;
12493;SDS011;8260;51.422;6.786;2022-12-20T01:12:24;2.92;;;2.22;;
12493;SDS011;8260;51.422;6.786;2022-12-20T01:14:52;4.30;;;2.13;;
12493;SDS011;8260;51.422;6.786;2022-12-20T01:17:21;2.35;;;2.10;;
12493;SDS011;8260;51.422;6.786;2022-12-20T01:19:49;4.03;;;2.28;;
12493;SDS011;8260;51.422;6.786;2022-12-20T01:22:18;4.35;;;2.45;;
12493;SDS011;8260;51.422;6.786;2022-12-20T01:24:46;2.83;;;2.17;;
12493;SDS011;8260;51.422;6.786;2022-12-20T01:27:15;3.38;;;2.30;;
12493;SDS011;8260;51.422;6.786;2022-12-20T01:29:44;4.60;;;2.22;;
12493;SDS011;8260;51.422;6.786;2022-12-20T01:32:13;3.28;;;2.22;;
12493;SDS011;8260;51.422;6.786;2022-12-20T01:34:41;3.92;;;2.38;;
12493;SDS011;8260;51.422;6.786;2022-12-20T01:37:10;3.03;;;2.35;;
12493;SDS011;8260;51.422;6.786;2022-12-20T01:39:38;2.45;;;2.25;;
12493;SDS011;8260;51.422;6.786;2022-12-20T01:42:08;3.42;;;2.30;;
12493;SDS011;8260;51.422;6.786;2022-12-20T01:47:33;2.97;;;2.33;;
12493;SDS011;8260;51.422;6.786;2022-12-20T01:50:03;3.08;;;2.63;;
12493;SDS011;8260;51.422;6.786;2022-12-20T01:52:33;4.25;;;2.00;;
12493;SDS011;8260;51.422;6.786;2022-12-20T01:55:04;2.58;;;2.35;;
12493;SDS011;8260;51.422;6.786;2022-12-20T01:57:35;3.20;;;2.30;;
12493;SDS011;8260;51.422;6.786;2022-12-20T02:00:06;4.05;;;2.60;;
12493;SDS011;8260;51.422;6.786;2022-12-20T02:02:38;3.33;;;2.60;;
12493;SDS011;8260;51.422;6.786;2022-12-20T02:05:08;4.18;;;2.15;;
12493;SDS011;8260;51.422;6.786;2022-12-20T02:07:36;2.67;;;2.40;;
12493;SDS011;8260;51.422;6.786;2022-12-20T02:10:06;3.72;;;2.50;;
12493;SDS011;8260;51.422;6.786;2022-12-20T02:12:37;3.53;;;2.28;;
12493;SDS011;8260;51.422;6.786;2022-12-20T02:15:10;3.03;;;2.00;;
12493;SDS011;8260;51.422;6.786;2022-12-20T02:17:47;3.35;;;2.20;;
12493;SDS011;8260;51.422;6.786;2022-12-20T02:20:28;3.78;;;2.20;;
12493;SDS011;8260;51.422;6.786;2022-12-20T02:23:10;3.03;;;2.15;;
12493;SDS011;8260;51.422;6.786;2022-12-20T02:25:43;2.25;;;2.05;;
12493;SDS011;8260;51.422;6.786;2022-12-20T02:28:17;4.72;;;2.33;;
12493;SDS011;8260;51.422;6.786;2022-12-20T02:30:52;3.20;;;2.50;;
12493;SDS011;8260;51.422;6.786;2022-12-20T02:33:21;2.40;;;2.20;;
12493;SDS011;8260;51.422;6.786;2022-12-20T02:35:51;2.85;;;2.38;;
12493;SDS011;8260;51.422;6.786;2022-12-20T02:38:24;4.05;;;2.35;;
12493;SDS011;8260;51.422;6.786;2022-12-20T02:40:54;2.42;;;2.22;;
12493;SDS011;8260;51.422;6.786;2022-12-20T02:43:23;2.97;;;2.25;;
12493;SDS011;8260;51.422;6.786;2022-12-20T02:46:13;2.80;;;2.58;;
12493;SDS011;8260;51.422;6.786;2022-12-20T02:48:42;5.30;;;2.67;;
12493;SDS011;8260;51.422;6.786;2022-12-20T02:51:11;3.95;;;2.75;;
12493;SDS011;8260;51.422;6.786;2022-12-20T02:53:40;2.95;;;2.65;;
12493;SDS011;8260;51.422;6.786;2022-12-20T02:56:11;3.25;;;2.90;;
12493;SDS011;8260;51.422;6.786;2022-12-20T02:58:42;3.30;;;3.00;;
12493;SDS011;8260;51.422;6.786;2022-12-20T03:01:17;4.57;;;2.80;;
12493;SDS011;8260;51.422;6.786;2022-12-20T03:03:48;4.72;;;3.50;;
12493;SDS011;8260;51.422;6.786;2022-12-20T03:06:19;3.88;;;3.25;;
12493;SDS011;8260;51.422;6.786;2022-12-20T03:08:48;5.75;;;3.10;;
12493;SDS011;8260;51.422;6.786;2022-12-20T03:11:16;4.90;;;3.78;;
12493;SDS011;8260;51.422;6.786;2022-12-20T03:13:45;4.85;;;3.10;;
12493;SDS011;8260;51.422;6.786;2022-12-20T03:16:14;5.03;;;3.55;;
12493;SDS011;8260;51.422;6.786;2022-12-20T03:18:43;4.90;;;4.18;;
12493;SDS011;8260;51.422;6.786;2022-12-20T03:21:13;5.18;;;3.85;;
12493;SDS011;8260;51.422;6.786;2022-12-20T03:23:41;3.88;;;3.58;;
12493;SDS011;8260;51.422;6.786;2022-12-20T03:26:10;4.97;;;4.10;;
12493;SDS011;8260;51.422;6.786;2022-12-20T03:28:38;4.45;;;3.97;;
12493;SDS011;8260;51.422;6.786;2022-12-20T03:31:07;5.57;;;3.90;;
12493;SDS011;8260;51.422;6.786;2022-12-20T03:33:35;6.70;;;4.57;;
12493;SDS011;8260;51.422;6.786;2022-12-20T03:36:05;5.13;;;4.63;;
12493;SDS011;8260;51.422;6.786;2022-12-20T03:38:34;6.95;;;4.45;;
12493;SDS011;8260;51.422;6.786;2022-12-20T03:41:02;5.30;;;4.80;;
12493;SDS011;8260;51.422;6.786;2022-12-20T03:43:31;6.38;;;4.97;;
12493;SDS011;8260;51.422;6.786;2022-12-20T03:45:59;6.22;;;5.03;;
12493;SDS011;8260;51.422;6.786;2022-12-20T03:48:28;5.78;;;5.10;;
12493;SDS011;8260;51.422;6.786;2022-12-20T03:50:56;6.25;;;5.00;;
12493;SDS011;8260;51.422;6.786;2022-12-20T03:53:26;6.10;;;5.00;;
12493;SDS011;8260;51.422;6.786;2022-12-20T03:55:54;7.50;;;5.53;;
12493;SDS011;8260;51.422;6.786;2022-12-20T03:58:22;5.97;;;4.70;;
12493;SDS011;8260;51.422;6.786;2022-12-20T04:00:51;6.88;;;5.07;;
12493;SDS011;8260;51.422;6.786;2022-12-20T04:03:19;6.10;;;5.50;;
12493;SDS011;8260;51.422;6.786;2022-12-20T04:05:48;7.70;;;5.80;;
12493;SDS011;8260;51.422;6.786;2022-12-20T04:08:16;8.02;;;5.47;;
12493;SDS011;8260;51.422;6.786;2022-12-20T04:10:46;7.95;;;5.75;;
12493;SDS011;8260;51.422;6.786;2022-12-20T04:13:32;6.65;;;5.68;;
12493;SDS011;8260;51.422;6.786;2022-12-20T04:16:00;7.47;;;6.10;;
12493;SDS011;8260;51.422;6.786;2022-12-20T04:18:29;7.63;;;6.05;;
12493;SDS011;8260;51.422;6.786;2022-12-20T04:20:58;9.80;;;6.55;;
12493;SDS011;8260;51.422;6.786;2022-12-20T04:23:26;8.45;;;6.90;;
12493;SDS011;8260;51.422;6.786;2022-12-20T04:25:56;8.13;;;7.32;;
12493;SDS011;8260;51.422;6.786;2022-12-20T04:28:25;10.55;;;7.20;;
12493;SDS011;8260;51.422;6.786;2022-12-20T04:30:53;10.02;;;7.32;;
12493;SDS011;8260;51.422;6.786;2022-12-20T04:33:22;9.57;;;6.95;;
12493;SDS011;8260;51.422;6.786;2022-12-20T04:35:51;9.15;;;7.57;;
12493;SDS011;8260;51.422;6.786;2022-12-20T04:38:19;9.25;;;7.47;;
12493;SDS011;8260;51.422;6.786;2022-12-20T04:40:48;9.73;;;6.90;;
12493;SDS011;8260;51.422;6.786;2022-12-20T04:43:18;8.85;;;6.93;;
12493;SDS011;8260;51.422;6.786;2022-12-20T04:45:49;7.72;;;6.50;;
12493;SDS011;8260;51.422;6.786;2022-12-20T04:48:19;7.82;;;6.68;;
12493;SDS011;8260;51.422;6.786;2022-12-20T04:51:07;7.30;;;6.20;;
12493;SDS011;8260;51.422;6.786;2022-12-20T04:53:36;6.57;;;5.93;;
12493;SDS011;8260;51.422;6.786;2022-12-20T04:56:14;7.38;;;5.93;;
12493;SDS011;8260;51.422;6.786;2022-12-20T04:58:44;7.85;;;6.28;;
12493;SDS011;8260;51.422;6.786;2022-12-20T05:01:12;6.07;;;5.22;;
12493;SDS011;8260;51.422;6.786;2022-12-20T05:03:41;6.25;;;5.50;;
12493;SDS011;8260;51.422;6.786;2022-12-20T05:06:09;7.22;;;5.90;;
12493;SDS011;8260;51.422;6.786;2022-12-20T05:08:38;7.90;;;5.88;;
12493;SDS011;8260;51.422;6.786;2022-12-20T05:11:06;7.35;;;5.97;;
12493;SDS011;8260;51.422;6.786;2022-12-20T05:13:35;6.40;;;5.63;;
12493;SDS011;8260;51.422;6.786;2022-12-20T05:16:05;9.30;;;5.97;;
12493;SDS011;8260;51.422;6.786;2022-12-20T05:18:33;7.03;;;6.00;;
12493;SDS011;8260;51.422;6.786;2022-12-20T05:21:06;8.25;;;6.35;;
12493;SDS011;8260;51.422;6.786;2022-12-20T05:24:01;8.02;;;6.28;;
12493;SDS011;8260;51.422;6.786;2022-12-20T05:26:47;7.25;;;6.43;;
12493;SDS011;8260;51.422;6.786;2022-12-20T05:29:15;7.80;;;6.00;;
12493;SDS011;8260;51.422;6.786;2022-12-20T05:31:45;6.47;;;5.70;;
12493;SDS011;8260;51.422;6.786;2022-12-20T05:34:14;8.95;;;5.97;;
12493;SDS011;8260;51.422;6.786;2022-12-20T05:36:42;8.15;;;5.90;;
12493;SDS011;8260;51.422;6.786;2022-12-20T05:39:11;7.88;;;6.00;;
12493;SDS011;8260;51.422;6.786;2022-12-20T05:41:39;8.43;;;5.97;;
12493;SDS011;8260;51.422;6.786;2022-12-20T05:44:08;7.32;;;6.07;;
12493;SDS011;8260;51.422;6.786;2022-12-20T05:46:36;8.73;;;5.43;;
12493;SDS011;8260;51.422;6.786;2022-12-20T05:49:06;7.47;;;5.60;;
12493;SDS011;8260;51.422;6.786;2022-12-20T05:51:34;8.38;;;6.03;;
12493;SDS011;8260;51.422;6.786;2022-12-20T05:54:03;9.30;;;5.72;;
12493;SDS011;8260;51.422;6.786;2022-12-20T05:56:32;6.15;;;5.25;;
12493;SDS011;8260;51.422;6.786;2022-12-20T05:59:01;8.13;;;5.75;;
12493;SDS011;8260;51.422;6.786;2022-12-20T06:01:29;7.95;;;5.97;;
12493;SDS011;8260;51.422;6.786;2022-12-20T06:03:58;6.13;;;5.07;;
12493;SDS011;8260;51.422;6.786;2022-12-20T06:06:28;6.25;;;5.57;;
12493;SDS011;8260;51.422;6.786;2022-12-20T06:08:57;5.45;;;4.95;;
12493;SDS011;8260;51.422;6.786;2022-12-20T06:11:26;6.28;;;5.60;;
12493;SDS011;8260;51.422;6.786;2022-12-20T06:13:56;7.28;;;4.47;;
12493;SDS011;8260;51.422;6.786;2022-12-20T06:16:24;8.48;;;4.88;;
12493;SDS011;8260;51.422;6.786;2022-12-20T06:18:53;5.57;;;4.57;;
12493;SDS011;8260;51.422;6.786;2022-12-20T06:21:22;6.65;;;4.85;;
12493;SDS011;8260;51.422;6.786;2022-12-20T06:23:54;8.15;;;5.45;;
12493;SDS011;8260;51.422;6.786;2022-12-20T06:26:22;6.22;;;4.75;;
12493;SDS011;8260;51.422;6.786;2022-12-20T06:28:51;6.68;;;4.60;;
12493;SDS011;8260;51.422;6.786;2022-12-20T06:31:22;7.22;;;4.82;;
12493;SDS011;8260;51.422;6.786;2022-12-20T06:33:50;8.10;;;5.03;;
12493;SDS011;8260;51.422;6.786;2022-12-20T06:36:19;5.47;;;4.18;;
12493;SDS011;8260;51.422;6.786;2022-12-20T06:38:47;4.95;;;4.47;;
12493;SDS011;8260;51.422;6.786;2022-12-20T06:41:17;5.28;;;4.38;;
12493;SDS011;8260;51.422;6.786;2022-12-20T06:43:45;4.97;;;4.38;;
12493;SDS011;8260;51.422;6.786;2022-12-20T06:46:14;4.60;;;4.15;;
12493;SDS011;8260;51.422;6.786;2022-12-20T06:48:43;6.03;;;4.65;;
12493;SDS011;8260;51.422;6.786;2022-12-20T06:51:11;6.35;;;4.35;;
12493;SDS011;8260;51.422;6.786;2022-12-20T06:53:39;3.92;;;3.50;;
12493;SDS011;8260;51.422;6.786;2022-12-20T06:56:08;4.97;;;4.22;;
12493;SDS011;8260;51.422;6.786;2022-12-20T06:58:40;4.45;;;3.47;;
12493;SDS011;8260;51.422;6.786;2022-12-20T07:01:08;6.45;;;4.45;;
12493;SDS011;8260;51.422;6.786;2022-12-20T07:03:37;5.55;;;4.10;;
12493;SDS011;8260;51.422;6.786;2022-12-20T07:06:05;4.95;;;4.00;;
12493;SDS011;8260;51.422;6.786;2022-12-20T07:08:34;5.00;;;3.60;;
12493;SDS011;8260;51.422;6.786;2022-12-20T07:11:03;5.57;;;3.92;;
12493;SDS011;8260;51.422;6.786;2022-12-20T07:13:32;4.00;;;3.67;;
12493;SDS011;8260;51.422;6.786;2022-12-20T07:16:02;5.72;;;3.70;;
12493;SDS011;8260;51.422;6.786;2022-12-20T07:18:31;7.53;;;3.83;;
12493;SDS011;8260;51.422;6.786;2022-12-20T07:21:01;4.50;;;3.92;;
12493;SDS011;8260;51.422;6.786;2022-12-20T07:23:29;5.13;;;3.85;;
12493;SDS011;8260;51.422;6.786;2022-12-20T07:25:58;5.88;;;3.40;;
12493;SDS011;8260;51.422;6.786;2022-12-20T07:28:29;3.78;;;3.47;;
12493;SDS011;8260;51.422;6.786;2022-12-20T07:30:59;3.90;;;3.50;;
12493;SDS011;8260;51.422;6.786;2022-12-20T07:33:29;4.15;;;3.45;;
12493;SDS011;8260;51.422;6.786;2022-12-20T07:36:00;5.63;;;3.63;;
12493;SDS011;8260;51.422;6.786;2022-12-20T07:38:29;4.25;;;3.40;;
12493;SDS011;8260;51.422;6.786;2022-12-20T07:40:57;10.25;;;3.75;;
12493;SDS011;8260;51.422;6.786;2022-12-20T07:43:26;3.90;;;3.15;;
12493;SDS011;8260;51.422;6.786;2022-12-20T07:45:55;6.32;;;3.33;;
12493;SDS011;8260;51.422;6.786;2022-12-20T07:48:23;4.75;;;3.33;;
12493;SDS011;8260;51.422;6.786;2022-12-20T07:50:54;3.42;;;3.13;;
12493;SDS011;8260;51.422;6.786;2022-12-20T07:53:24;4.97;;;3.13;;
12493;SDS011;8260;51.422;6.786;2022-12-20T07:55:54;4.03;;;3.30;;
12493;SDS011;8260;51.422;6.786;2022-12-20T07:58:23;5.70;;;3.13;;
12493;SDS011;8260;51.422;6.786;2022-12-20T08:00:52;4.20;;;3.40;;
12493;SDS011;8260;51.422;6.786;2022-12-20T08:03:22;3.75;;;3.35;;
12493;SDS011;8260;51.422;6.786;2022-12-20T08:05:56;5.45;;;3.25;;
12493;SDS011;8260;51.422;6.786;2022-12-20T08:08:25;3.33;;;3.03;;
12493;SDS011;8260;51.422;6.786;2022-12-20T08:10:54;3.03;;;2.72;;
12493;SDS011;8260;51.422;6.786;2022-12-20T08:13:22;5.03;;;3.17;;
12493;SDS011;8260;51.422;6.786;2022-12-20T08:15:51;3.35;;;2.85;;
12493;SDS011;8260;51.422;6.786;2022-12-20T08:18:19;4.05;;;2.83;;
12493;SDS011;8260;51.422;6.786;2022-12-20T08:20:47;6.00;;;2.92;;
12493;SDS011;8260;51.422;6.786;2022-12-20T08:23:17;3.05;;;2.85;;
12493;SDS011;8260;51.422;6.786;2022-12-20T08:25:46;4.97;;;2.65;;
12493;SDS011;8260;51.422;6.786;2022-12-20T08:28:14;3.53;;;2.75;;
12493;SDS011;8260;51.422;6.786;2022-12-20T08:30:42;4.80;;;3.30;;
12493;SDS011;8260;51.422;6.786;2022-12-20T08:33:12;5.63;;;3.08;;
12493;SDS011;8260;51.422;6.786;2022-12-20T08:35:40;3.13;;;2.80;;
12493;SDS011;8260;51.422;6.786;2022-12-20T08:38:08;3.28;;;2.67;;
12493;SDS011;8260;51.422;6.786;2022-12-20T08:40:38;5.07;;;3.15;;
12493;SDS011;8260;51.422;6.786;2022-12-20T08:43:07;5.25;;;3.08;;
12493;SDS011;8260;51.422;6.786;2022-12-20T08:45:35;3.60;;;3.25;;
12493;SDS011;8260;51.422;6.786;2022-12-20T08:48:04;4.88;;;3.22;;
12493;SDS011;8260;51.422;6.786;2022-12-20T08:50:32;3.53;;;2.72;;
12493;SDS011;8260;51.422;6.786;2022-12-20T08:53:01;6.70;;;2.95;;
12493;SDS011;8260;51.422;6.786;2022-12-20T08:55:29;3.72;;;2.90;;
12493;SDS011;8260;51.422;6.786;2022-12-20T08:57:59;3.00;;;2.70;;
12493;SDS011;8260;51.422;6.786;2022-12-20T09:00:28;4.50;;;2.97;;
12493;SDS011;8260;51.422;6.786;2022-12-20T09:02:56;4.22;;;3.00;;
12493;SDS011;8260;51.422;6.786;2022-12-20T09:05:25;3.72;;;2.65;;
12493;SDS011;8260;51.422;6.786;2022-12-20T09:07:53;3.88;;;2.92;;
12493;SDS011;8260;51.422;6.786;2022-12-20T09:10:22;4.53;;;3.10;;
12493;SDS011;8260;51.422;6.786;2022-12-20T09:12:50;3.67;;;2.88;;
12493;SDS011;8260;51.422;6.786;2022-12-20T09:15:20;3.35;;;2.78;;
12493;SDS011;8260;51.422;6.786;2022-12-20T09:17:49;5.82;;;2.80;;
12493;SDS011;8260;51.422;6.786;2022-12-20T09:20:17;3.42;;;2.97;;
12493;SDS011;8260;51.422;6.786;2022-12-20T09:22:46;3.00;;;2.70;;
12493;SDS011;8260;51.422;6.786;2022-12-20T09:25:14;4.80;;;3.38;;
12493;SDS011;8260;51.422;6.786;2022-12-20T09:27:43;3.70;;;2.60;;
12493;SDS011;8260;51.422;6.786;2022-12-20T09:30:11;3.45;;;2.58;;
12493;SDS011;8260;51.422;6.786;2022-12-20T09:32:41;2.97;;;2.63;;
12493;SDS011;8260;51.422;6.786;2022-12-20T09:35:10;2.88;;;2.63;;
12493;SDS011;8260;51.422;6.786;2022-12-20T09:37:46;3.22;;;2.45;;
12493;SDS011;8260;51.422;6.786;2022-12-20T09:40:16;3.28;;;2.72;;
12493;SDS011;8260;51.422;6.786;2022-12-20T09:42:46;4.90;;;2.53;;
12493;SDS011;8260;51.422;6.786;2022-12-20T09:45:18;4.85;;;2.83;;
12493;SDS011;8260;51.422;6.786;2022-12-20T09:47:50;4.38;;;2.90;;
12493;SDS011;8260;51.422;6.786;2022-12-20T09:50:19;3.38;;;2.80;;
12493;SDS011;8260;51.422;6.786;2022-12-20T09:52:52;4.05;;;2.92;;
12493;SDS011;8260;51.422;6.786;2022-12-20T09:55:24;6.25;;;2.92;;
12493;SDS011;8260;51.422;6.786;2022-12-20T09:57:57;4.55;;;2.90;;
12493;SDS011;8260;51.422;6.786;2022-12-20T10:00:34;2.92;;;2.63;;
12493;SDS011;8260;51.422;6.786;2022-12-20T10:03:04;3.35;;;3.03;;
12493;SDS011;8260;51.422;6.786;2022-12-20T10:05:37;3.03;;;2.72;;
12493;SDS011;8260;51.422;6.786;2022-12-20T10:08:09;4.57;;;3.15;;
12493;SDS011;8260;51.422;6.786;2022-12-20T10:10:41;5.28;;;2.65;;
12493;SDS011;8260;51.422;6.786;2022-12-20T10:13:17;3.55;;;3.15;;
12493;SDS011;8260;51.422;6.786;2022-12-20T10:15:48;3.38;;;2.95;;
12493;SDS011;8260;51.422;6.786;2022-12-20T10:18:23;3.33;;;3.03;;
12493;SDS011;8260;51.422;6.786;2022-12-20T10:20:56;4.60;;;3.00;;
12493;SDS011;8260;51.422;6.786;2022-12-20T10:23:27;4.70;;;3.33;;
12493;SDS011;8260;51.422;6.786;2022-12-20T10:25:59;6.85;;;3.15;;
12493;SDS011;8260;51.422;6.786;2022-12-20T10:28:28;3.55;;;2.90;;
12493;SDS011;8260;51.422;6.786;2022-12-20T10:30:57;4.97;;;2.85;;
12493;SDS011;8260;51.422;6.786;2022-12-20T10:33:29;5.35;;;3.40;;
12493;SDS011;8260;51.422;6.786;2022-12-20T10:38:42;6.20;;;3.50;;
12493;SDS011;8260;51.422;6.786;2022-12-20T10:41:14;5.25;;;3.00;;
12493;SDS011;8260;51.422;6.786;2022-12-20T10:43:48;5.03;;;3.20;;
12493;SDS011;8260;51.422;6.786;2022-12-20T10:46:17;3.47;;;2.80;;
12493;SDS011;8260;51.422;6.786;2022-12-20T10:48:48;5.32;;;3.10;;
12493;SDS011;8260;51.422;6.786;2022-12-20T10:51:17;5.28;;;3.10;;
12493;SDS011;8260;51.422;6.786;2022-12-20T10:53:51;7.00;;;3.28;;
12493;SDS011;8260;51.422;6.786;2022-12-20T10:56:20;4.07;;;2.78;;
12493;SDS011;8260;51.422;6.786;2022-12-20T10:58:52;4.05;;;3.00;;
12493;SDS011;8260;51.422;6.786;2022-12-20T11:01:22;3.83;;;3.42;;
12493;SDS011;8260;51.422;6.786;2022-12-20T11:04:06;4.47;;;3.03;;
12493;SDS011;8260;51.422;6.786;2022-12-20T11:06:44;2.95;;;2.70;;
12493;SDS011;8260;51.422;6.786;2022-12-20T11:09:23;5.32;;;2.80;;
12493;SDS011;8260;51.422;6.786;2022-12-20T11:11:58;3.60;;;3.28;;
12493;SDS011;8260;51.422;6.786;2022-12-20T11:14:27;3.58;;;2.97;;
12493;SDS011;8260;51.422;6.786;2022-12-20T11:17:04;3.42;;;2.65;;
12493;SDS011;8260;51.422;6.786;2022-12-20T11:19:49;3.30;;;2.92;;
12493;SDS011;8260;51.422;6.786;2022-12-20T11:22:24;4.22;;;2.75;;
12493;SDS011;8260;51.422;6.786;2022-12-20T11:24:57;3.03;;;2.70;;
12493;SDS011;8260;51.422;6.786;2022-12-20T11:27:30;3.20;;;2.70;;
12493;SDS011;8260;51.422;6.786;2022-12-20T11:30:02;4.35;;;2.53;;
12493;SDS011;8260;51.422;6.786;2022-12-20T11:32:37;5.70;;;2.95;;
12493;SDS011;8260;51.422;6.786;2022-12-20T11:35:17;3.88;;;2.50;;
12493;SDS011;8260;51.422;6.786;2022-12-20T11:37:48;5.97;;;2.80;;
12493;SDS011;8260;51.422;6.786;2022-12-20T11:40:25;3.47;;;2.70;;
12493;SDS011;8260;51.422;6.786;2022-12-20T11:43:12;4.25;;;2.80;;
12493;SDS011;8260;51.422;6.786;2022-12-20T11:45:47;6.43;;;3.05;;
12493;SDS011;8260;51.422;6.786;2022-12-20T11:51:09;4.50;;;3.15;;
12493;SDS011;8260;51.422;6.786;2022-12-20T11:53:51;3.22;;;2.72;;
12493;SDS011;8260;51.422;6.786;2022-12-20T11:56:22;3.72;;;2.90;;
12493;SDS011;8260;51.422;6.786;2022-12-20T11:58:53;3.47;;;3.17;;
12493;SDS011;8260;51.422;6.786;2022-12-20T12:01:23;8.40;;;3.13;;
12493;SDS011;8260;51.422;6.786;2022-12-20T12:03:58;3.20;;;2.90;;
12493;SDS011;8260;51.422;6.786;2022-12-20T12:06:31;5.53;;;3.30;;
12493;SDS011;8260;51.422;6.786;2022-12-20T12:09:05;3.75;;;3.20;;
12493;SDS011;8260;51.422;6.786;2022-12-20T12:11:36;4.78;;;3.42;;
12493;SDS011;8260;51.422;6.786;2022-12-20T12:14:28;4.07;;;3.25;;
12493;SDS011;8260;51.422;6.786;2022-12-20T12:16:59;7.32;;;3.50;;
12493;SDS011;8260;51.422;6.786;2022-12-20T12:19:33;5.90;;;3.45;;
12493;SDS011;8260;51.422;6.786;2022-12-20T12:22:06;8.55;;;3.58;;
12493;SDS011;8260;51.422;6.786;2022-12-20T12:24:39;3.78;;;2.90;;
12493;SDS011;8260;51.422;6.786;2022-12-20T12:27:11;4.80;;;3.13;;
12493;SDS011;8260;51.422;6.786;2022-12-20T12:29:42;4.75;;;3.17;;
12493;SDS011;8260;51.422;6.786;2022-12-20T12:32:13;4.50;;;3.15;;
12493;SDS011;8260;51.422;6.786;2022-12-20T12:34:47;4.20;;;3.00;;
12493;SDS011;8260;51.422;6.786;2022-12-20T12:37:24;4.35;;;2.95;;
12493;SDS011;8260;51.422;6.786;2022-12-20T12:40:02;6.95;;;3.20;;
12493;SDS011;8260;51.422;6.786;2022-12-20T12:45:22;3.92;;;2.65;;
12493;SDS011;8260;51.422;6.786;2022-12-20T12:47:52;3.38;;;2.85;;
12493;SDS011;8260;51.422;6.786;2022-12-20T12:50:23;6.05;;;3.00;;
12493;SDS011;8260;51.422;6.786;2022-12-20T12:52:54;4.88;;;3.08;;
12493;SDS011;8260;51.422;6.786;2022-12-20T12:55:37;4.75;;;3.28;;
12493;SDS011;8260;51.422;6.786;2022-12-20T13:08:48;5.70;;;2.95;;
12493;SDS011;8260;51.422;6.786;2022-12-20T13:11:27;5.55;;;3.55;;
12493;SDS011;8260;51.422;6.786;2022-12-20T13:14:09;6.05;;;3.58;;
12493;SDS011;8260;51.422;6.786;2022-12-20T13:16:38;5.25;;;3.30;;
12493;SDS011;8260;51.422;6.786;2022-12-20T13:19:30;4.70;;;3.58;;
12493;SDS011;8260;51.422;6.786;2022-12-20T13:22:12;7.05;;;3.47;;
12493;SDS011;8260;51.422;6.786;2022-12-20T13:24:52;5.57;;;3.80;;
12493;SDS011;8260;51.422;6.786;2022-12-20T13:27:26;5.07;;;3.60;;
12493;SDS011;8260;51.422;6.786;2022-12-20T13:35:46;5.10;;;3.60;;
12493;SDS011;8260;51.422;6.786;2022-12-20T13:41:18;5.53;;;3.40;;
12493;SDS011;8260;51.422;6.786;2022-12-20T13:43:53;4.22;;;3.40;;
12493;SDS011;8260;51.422;6.786;2022-12-20T13:46:25;4.65;;;3.85;;
12493;SDS011;8260;51.422;6.786;2022-12-20T13:48:58;6.00;;;4.53;;
12493;SDS011;8260;51.422;6.786;2022-12-20T13:51:28;6.32;;;3.80;;
12493;SDS011;8260;51.422;6.786;2022-12-20T13:53:58;8.02;;;3.92;;
12493;SDS011;8260;51.422;6.786;2022-12-20T13:56:37;6.03;;;4.20;;
12493;SDS011;8260;51.422;6.786;2022-12-20T13:59:12;6.18;;;4.40;;
12493;SDS011;8260;51.422;6.786;2022-12-20T14:01:47;7.47;;;4.38;;
12493;SDS011;8260;51.422;6.786;2022-12-20T14:04:16;6.53;;;4.40;;
12493;SDS011;8260;51.422;6.786;2022-12-20T14:06:49;7.60;;;4.95;;
12493;SDS011;8260;51.422;6.786;2022-12-20T14:09:25;7.47;;;4.72;;
12493;SDS011;8260;51.422;6.786;2022-12-20T14:12:01;6.78;;;4.38;;
12493;SDS011;8260;51.422;6.786;2022-12-20T14:14:29;7.82;;;4.70;;
12493;SDS011;8260;51.422;6.786;2022-12-20T14:19:41;8.48;;;4.40;;
12493;SDS011;8260;51.422;6.786;2022-12-20T14:22:10;6.25;;;4.15;;
12493;SDS011;8260;51.422;6.786;2022-12-20T14:24:38;8.85;;;4.82;;
12493;SDS011;8260;51.422;6.786;2022-12-20T14:27:10;6.47;;;4.70;;
12493;SDS011;8260;51.422;6.786;2022-12-20T14:29:39;8.90;;;4.90;;
12493;SDS011;8260;51.422;6.786;2022-12-20T14:32:16;7.30;;;4.15;;
12493;SDS011;8260;51.422;6.786;2022-12-20T14:34:44;10.93;;;4.68;;
12493;SDS011;8260;51.422;6.786;2022-12-20T14:37:23;9.18;;;4.65;;
12493;SDS011;8260;51.422;6.786;2022-12-20T14:39:53;11.98;;;5.03;;
12493;SDS011;8260;51.422;6.786;2022-12-20T14:42:25;8.32;;;4.90;;
12493;SDS011;8260;51.422;6.786;2022-12-20T14:45:01;11.15;;;5.47;;
12493;SDS011;8260;51.422;6.786;2022-12-20T14:47:29;7.55;;;5.05;;
12493;SDS011;8260;51.422;6.786;2022-12-20T14:49:59;8.55;;;5.15;;
12493;SDS011;8260;51.422;6.786;2022-12-20T14:52:29;8.75;;;5.07;;
12493;SDS011;8260;51.422;6.786;2022-12-20T14:55:01;9.75;;;5.68;;
12493;SDS011;8260;51.422;6.786;2022-12-20T14:57:44;8.07;;;6.05;;
12493;SDS011;8260;51.422;6.786;2022-12-20T15:00:18;9.15;;;5.72;;
12493;SDS011;8260;51.422;6.786;2022-12-20T15:02:56;8.75;;;6.22;;
12493;SDS011;8260;51.422;6.786;2022-12-20T15:08:22;7.85;;;5.40;;
12493;SDS011;8260;51.422;6.786;2022-12-20T15:10:54;7.72;;;6.32;;
12493;SDS011;8260;51.422;6.786;2022-12-20T15:13:26;10.70;;;6.13;;
12493;SDS011;8260;51.422;6.786;2022-12-20T15:15:56;9.98;;;5.72;;
12493;SDS011;8260;51.422;6.786;2022-12-20T15:18:25;10.95;;;6.28;;
12493;SDS011;8260;51.422;6.786;2022-12-20T15:20:58;9.75;;;6.68;;
12493;SDS011;8260;51.422;6.786;2022-12-20T15:23:27;10.38;;;6.97;;
12493;SDS011;8260;51.422;6.786;2022-12-20T15:25:56;8.85;;;6.18;;
12493;SDS011;8260;51.422;6.786;2022-12-20T15:28:26;13.57;;;6.78;;
12493;SDS011;8260;51.422;6.786;2022-12-20T15:30:55;8.13;;;6.40;;
12493;SDS011;8260;51.422;6.786;2022-12-20T15:33:24;10.25;;;7.20;;
12493;SDS011;8260;51.422;6.786;2022-12-20T15:35:54;8.05;;;6.53;;
12493;SDS011;8260;51.422;6.786;2022-12-20T15:38:24;10.40;;;5.90;;
12493;SDS011;8260;51.422;6.786;2022-12-20T15:41:16;9.00;;;6.20;;
12493;SDS011;8260;51.422;6.786;2022-12-20T15:43:47;8.88;;;6.47;;
12493;SDS011;8260;51.422;6.786;2022-12-20T15:46:17;12.60;;;6.85;;
12493;SDS011;8260;51.422;6.786;2022-12-20T15:48:46;11.52;;;6.80;;
12493;SDS011;8260;51.422;6.786;2022-12-20T15:51:15;9.10;;;6.60;;
12493;SDS011;8260;51.422;6.786;2022-12-20T15:53:44;11.43;;;6.85;;
12493;SDS011;8260;51.422;6.786;2022-12-20T15:56:15;11.05;;;6.47;;
12493;SDS011;8260;51.422;6.786;2022-12-20T15:58:44;11.00;;;6.82;;